sensor_id;sensor_type;location;lat;lon;timestamp;P1;durP1;ratioP1;P2;durP2;ratioP2
60867;SDS011;46702;48.370;10.794;2023-02-15T00:01:36;22.38;;;11.32;;
60867;SDS011;46702;48.370;10.794;2023-02-15T00:04:03;21.83;;;8.68;;
60867;SDS011;46702;48.370;10.794;2023-02-15T00:06:30;42.75;;;9.35;;
60867;SDS011;46702;48.370;10.794;2023-02-15T00:08:56;15.38;;;7.45;;
60867;SDS011;46702;48.370;10.794;2023-02-15T00:11:22;23.02;;;8.75;;
60867;SDS011;46702;48.370;10.794;2023-02-15T00:14:09;37.65;;;10.98;;
60867;SDS011;46702;48.370;10.794;2023-02-15T00:16:35;34.50;;;11.52;;
60867;SDS011;46702;48.370;10.794;2023-02-15T00:19:02;18.23;;;8.40;;
60867;SDS011;46702;48.370;10.794;2023-02-15T00:21:29;39.15;;;9.25;;
60867;SDS011;46702;48.370;10.794;2023-02-15T00:23:56;24.42;;;8.95;;
60867;SDS011;46702;48.370;10.794;2023-02-15T00:26:23;46.47;;;11.00;;
60867;SDS011;46702;48.370;10.794;2023-02-15T00:28:48;35.80;;;10.10;;
60867;SDS011;46702;48.370;10.794;2023-02-15T00:31:14;60.78;;;10.23;;
60867;SDS011;46702;48.370;10.794;2023-02-15T00:33:40;48.83;;;11.10;;
60867;SDS011;46702;48.370;10.794;2023-02-15T00:36:06;15.90;;;6.68;;
60867;SDS011;46702;48.370;10.794;2023-02-15T00:38:33;18.05;;;6.30;;
60867;SDS011;46702;48.370;10.794;2023-02-15T00:41:00;12.60;;;7.30;;
60867;SDS011;46702;48.370;10.794;2023-02-15T00:43:28;13.23;;;8.20;;
60867;SDS011;46702;48.370;10.794;2023-02-15T00:45:55;8.43;;;6.87;;
60867;SDS011;46702;48.370;10.794;2023-02-15T00:48:21;9.45;;;5.75;;
60867;SDS011;46702;48.370;10.794;2023-02-15T00:50:51;8.63;;;5.90;;
60867;SDS011;46702;48.370;10.794;2023-02-15T00:53:18;8.50;;;5.18;;
60867;SDS011;46702;48.370;10.794;2023-02-15T00:55:45;15.85;;;6.60;;
60867;SDS011;46702;48.370;10.794;2023-02-15T00:58:10;9.43;;;5.70;;
60867;SDS011;46702;48.370;10.794;2023-02-15T01:00:37;9.68;;;4.78;;
60867;SDS011;46702;48.370;10.794;2023-02-15T01:03:04;4.25;;;3.63;;
60867;SDS011;46702;48.370;10.794;2023-02-15T01:05:33;7.22;;;4.95;;
60867;SDS011;46702;48.370;10.794;2023-02-15T01:07:59;5.80;;;4.57;;
60867;SDS011;46702;48.370;10.794;2023-02-15T01:10:25;6.05;;;4.63;;
60867;SDS011;46702;48.370;10.794;2023-02-15T01:12:52;9.88;;;5.70;;
60867;SDS011;46702;48.370;10.794;2023-02-15T01:15:19;16.52;;;8.77;;
60867;SDS011;46702;48.370;10.794;2023-02-15T01:17:45;11.40;;;7.50;;
60867;SDS011;46702;48.370;10.794;2023-02-15T01:20:16;13.48;;;8.15;;
60867;SDS011;46702;48.370;10.794;2023-02-15T01:22:42;23.35;;;12.27;;
60867;SDS011;46702;48.370;10.794;2023-02-15T01:25:08;12.98;;;8.60;;
60867;SDS011;46702;48.370;10.794;2023-02-15T01:27:34;46.53;;;6.03;;
60867;SDS011;46702;48.370;10.794;2023-02-15T01:29:59;7.70;;;5.38;;
60867;SDS011;46702;48.370;10.794;2023-02-15T01:32:25;5.70;;;5.07;;
60867;SDS011;46702;48.370;10.794;2023-02-15T01:34:51;14.07;;;5.43;;
60867;SDS011;46702;48.370;10.794;2023-02-15T01:37:17;12.10;;;5.10;;
60867;SDS011;46702;48.370;10.794;2023-02-15T01:39:43;4.05;;;3.15;;
60867;SDS011;46702;48.370;10.794;2023-02-15T01:42:12;37.70;;;7.30;;
60867;SDS011;46702;48.370;10.794;2023-02-15T01:44:51;7.03;;;4.75;;
60867;SDS011;46702;48.370;10.794;2023-02-15T01:47:22;7.38;;;5.05;;
60867;SDS011;46702;48.370;10.794;2023-02-15T01:49:59;8.32;;;5.63;;
60867;SDS011;46702;48.370;10.794;2023-02-15T01:52:37;12.80;;;5.70;;
60867;SDS011;46702;48.370;10.794;2023-02-15T01:55:05;7.60;;;4.68;;
60867;SDS011;46702;48.370;10.794;2023-02-15T01:57:32;5.65;;;4.75;;
60867;SDS011;46702;48.370;10.794;2023-02-15T01:59:59;9.68;;;5.53;;
60867;SDS011;46702;48.370;10.794;2023-02-15T02:04:54;14.35;;;6.32;;
60867;SDS011;46702;48.370;10.794;2023-02-15T02:07:31;6.00;;;5.30;;
60867;SDS011;46702;48.370;10.794;2023-02-15T02:09:59;6.07;;;4.10;;
60867;SDS011;46702;48.370;10.794;2023-02-15T02:12:26;13.68;;;4.55;;
60867;SDS011;46702;48.370;10.794;2023-02-15T02:14:51;13.10;;;5.32;;
60867;SDS011;46702;48.370;10.794;2023-02-15T02:25:52;26.08;;;6.97;;
60867;SDS011;46702;48.370;10.794;2023-02-15T02:31:00;9.45;;;5.80;;
60867;SDS011;46702;48.370;10.794;2023-02-15T02:33:42;11.95;;;5.90;;
60867;SDS011;46702;48.370;10.794;2023-02-15T02:44:42;7.72;;;6.25;;
60867;SDS011;46702;48.370;10.794;2023-02-15T02:49:51;21.90;;;7.30;;
60867;SDS011;46702;48.370;10.794;2023-02-15T03:00:42;21.38;;;7.97;;
60867;SDS011;46702;48.370;10.794;2023-02-15T03:05:58;27.38;;;7.53;;
60867;SDS011;46702;48.370;10.794;2023-02-15T03:08:27;9.75;;;6.53;;
60867;SDS011;46702;48.370;10.794;2023-02-15T03:11:04;17.30;;;6.43;;
60867;SDS011;46702;48.370;10.794;2023-02-15T03:13:30;7.85;;;5.05;;
60867;SDS011;46702;48.370;10.794;2023-02-15T03:15:57;10.13;;;5.97;;
60867;SDS011;46702;48.370;10.794;2023-02-15T03:18:49;11.32;;;6.00;;
60867;SDS011;46702;48.370;10.794;2023-02-15T03:21:22;8.43;;;6.53;;
60867;SDS011;46702;48.370;10.794;2023-02-15T03:24:00;13.40;;;6.47;;
60867;SDS011;46702;48.370;10.794;2023-02-15T03:26:34;6.05;;;5.07;;
60867;SDS011;46702;48.370;10.794;2023-02-15T03:29:03;13.23;;;7.03;;
60867;SDS011;46702;48.370;10.794;2023-02-15T03:31:32;8.30;;;6.00;;
60867;SDS011;46702;48.370;10.794;2023-02-15T03:34:06;6.80;;;5.00;;
60867;SDS011;46702;48.370;10.794;2023-02-15T03:36:43;8.63;;;5.63;;
60867;SDS011;46702;48.370;10.794;2023-02-15T03:42:22;6.93;;;5.90;;
60867;SDS011;46702;48.370;10.794;2023-02-15T03:47:30;10.65;;;5.93;;
60867;SDS011;46702;48.370;10.794;2023-02-15T03:50:03;10.77;;;6.43;;
60867;SDS011;46702;48.370;10.794;2023-02-15T03:52:55;8.45;;;5.63;;
60867;SDS011;46702;48.370;10.794;2023-02-15T03:55:23;7.55;;;5.63;;
60867;SDS011;46702;48.370;10.794;2023-02-15T03:57:50;4.63;;;4.18;;
60867;SDS011;46702;48.370;10.794;2023-02-15T04:00:36;7.57;;;4.80;;
60867;SDS011;46702;48.370;10.794;2023-02-15T04:06:04;4.57;;;4.15;;
60867;SDS011;46702;48.370;10.794;2023-02-15T04:08:30;8.00;;;6.70;;
60867;SDS011;46702;48.370;10.794;2023-02-15T04:11:14;6.82;;;4.93;;
60867;SDS011;46702;48.370;10.794;2023-02-15T04:13:40;10.43;;;6.10;;
60867;SDS011;46702;48.370;10.794;2023-02-15T04:16:06;11.02;;;7.00;;
60867;SDS011;46702;48.370;10.794;2023-02-15T04:18:33;9.88;;;6.25;;
60867;SDS011;46702;48.370;10.794;2023-02-15T04:21:18;9.48;;;6.68;;
60867;SDS011;46702;48.370;10.794;2023-02-15T04:24:03;11.30;;;7.50;;
60867;SDS011;46702;48.370;10.794;2023-02-15T04:26:48;10.63;;;6.30;;
60867;SDS011;46702;48.370;10.794;2023-02-15T04:29:14;13.73;;;7.18;;
60867;SDS011;46702;48.370;10.794;2023-02-15T04:31:40;13.90;;;7.35;;
60867;SDS011;46702;48.370;10.794;2023-02-15T04:34:07;14.65;;;6.30;;
60867;SDS011;46702;48.370;10.794;2023-02-15T04:36:33;10.20;;;6.32;;
60867;SDS011;46702;48.370;10.794;2023-02-15T04:38:59;11.68;;;7.32;;
60867;SDS011;46702;48.370;10.794;2023-02-15T04:41:24;9.27;;;6.10;;
60867;SDS011;46702;48.370;10.794;2023-02-15T04:43:50;12.27;;;6.20;;
60867;SDS011;46702;48.370;10.794;2023-02-15T04:46:15;9.50;;;5.55;;
60867;SDS011;46702;48.370;10.794;2023-02-15T04:48:41;12.57;;;6.57;;
60867;SDS011;46702;48.370;10.794;2023-02-15T04:51:07;9.35;;;6.60;;
60867;SDS011;46702;48.370;10.794;2023-02-15T04:53:33;9.98;;;6.15;;
60867;SDS011;46702;48.370;10.794;2023-02-15T04:55:59;10.18;;;6.47;;
60867;SDS011;46702;48.370;10.794;2023-02-15T04:58:24;11.88;;;6.20;;
60867;SDS011;46702;48.370;10.794;2023-02-15T05:00:50;13.02;;;7.57;;
60867;SDS011;46702;48.370;10.794;2023-02-15T05:03:19;10.70;;;7.18;;
60867;SDS011;46702;48.370;10.794;2023-02-15T05:05:46;7.28;;;5.18;;
60867;SDS011;46702;48.370;10.794;2023-02-15T05:08:12;12.32;;;5.05;;
60867;SDS011;46702;48.370;10.794;2023-02-15T05:10:38;5.95;;;4.75;;
60867;SDS011;46702;48.370;10.794;2023-02-15T05:13:03;8.02;;;5.32;;
60867;SDS011;46702;48.370;10.794;2023-02-15T05:15:29;6.13;;;5.45;;
60867;SDS011;46702;48.370;10.794;2023-02-15T05:17:54;4.78;;;2.97;;
60867;SDS011;46702;48.370;10.794;2023-02-15T05:20:20;11.15;;;6.13;;
60867;SDS011;46702;48.370;10.794;2023-02-15T05:22:46;12.38;;;6.32;;
60867;SDS011;46702;48.370;10.794;2023-02-15T05:25:11;12.55;;;7.15;;
60867;SDS011;46702;48.370;10.794;2023-02-15T05:27:55;6.50;;;5.72;;
60867;SDS011;46702;48.370;10.794;2023-02-15T05:30:40;9.55;;;5.80;;
60867;SDS011;46702;48.370;10.794;2023-02-15T05:33:06;10.27;;;7.30;;
60867;SDS011;46702;48.370;10.794;2023-02-15T05:35:32;9.00;;;5.30;;
60867;SDS011;46702;48.370;10.794;2023-02-15T05:37:59;2.70;;;2.50;;
60867;SDS011;46702;48.370;10.794;2023-02-15T05:40:24;20.70;;;6.57;;
60867;SDS011;46702;48.370;10.794;2023-02-15T05:42:50;3.10;;;2.80;;
60867;SDS011;46702;48.370;10.794;2023-02-15T05:45:16;11.38;;;6.20;;
60867;SDS011;46702;48.370;10.794;2023-02-15T05:47:42;13.10;;;7.00;;
60867;SDS011;46702;48.370;10.794;2023-02-15T05:50:11;8.68;;;6.25;;
60867;SDS011;46702;48.370;10.794;2023-02-15T05:52:36;10.02;;;6.78;;
60867;SDS011;46702;48.370;10.794;2023-02-15T05:55:02;5.07;;;4.63;;
60867;SDS011;46702;48.370;10.794;2023-02-15T05:57:33;8.60;;;6.68;;
60867;SDS011;46702;48.370;10.794;2023-02-15T06:00:02;12.13;;;7.15;;
60867;SDS011;46702;48.370;10.794;2023-02-15T06:02:33;15.32;;;8.02;;
60867;SDS011;46702;48.370;10.794;2023-02-15T06:05:00;6.47;;;5.25;;
60867;SDS011;46702;48.370;10.794;2023-02-15T06:07:26;10.13;;;6.22;;
60867;SDS011;46702;48.370;10.794;2023-02-15T06:09:51;10.82;;;7.05;;
60867;SDS011;46702;48.370;10.794;2023-02-15T06:12:17;10.07;;;6.53;;
60867;SDS011;46702;48.370;10.794;2023-02-15T06:14:43;11.05;;;6.82;;
60867;SDS011;46702;48.370;10.794;2023-02-15T06:17:08;10.25;;;6.97;;
60867;SDS011;46702;48.370;10.794;2023-02-15T06:19:34;15.85;;;8.45;;
60867;SDS011;46702;48.370;10.794;2023-02-15T06:22:01;11.35;;;7.35;;
60867;SDS011;46702;48.370;10.794;2023-02-15T06:24:27;11.68;;;6.90;;
60867;SDS011;46702;48.370;10.794;2023-02-15T06:26:52;12.95;;;7.72;;
60867;SDS011;46702;48.370;10.794;2023-02-15T06:29:18;12.43;;;7.15;;
60867;SDS011;46702;48.370;10.794;2023-02-15T06:31:44;15.63;;;10.30;;
60867;SDS011;46702;48.370;10.794;2023-02-15T06:34:10;9.75;;;7.50;;
60867;SDS011;46702;48.370;10.794;2023-02-15T06:36:35;14.25;;;9.35;;
60867;SDS011;46702;48.370;10.794;2023-02-15T06:39:01;15.52;;;8.95;;
60867;SDS011;46702;48.370;10.794;2023-02-15T06:41:28;11.63;;;6.47;;
60867;SDS011;46702;48.370;10.794;2023-02-15T06:43:54;13.32;;;7.70;;
60867;SDS011;46702;48.370;10.794;2023-02-15T06:46:19;8.85;;;6.88;;
60867;SDS011;46702;48.370;10.794;2023-02-15T06:48:45;14.32;;;9.23;;
60867;SDS011;46702;48.370;10.794;2023-02-15T06:51:11;10.25;;;6.70;;
60867;SDS011;46702;48.370;10.794;2023-02-15T06:53:36;12.13;;;7.18;;
60867;SDS011;46702;48.370;10.794;2023-02-15T06:56:05;11.43;;;6.75;;
60867;SDS011;46702;48.370;10.794;2023-02-15T06:58:34;12.10;;;7.38;;
60867;SDS011;46702;48.370;10.794;2023-02-15T07:01:00;11.68;;;7.32;;
60867;SDS011;46702;48.370;10.794;2023-02-15T07:03:26;13.60;;;6.90;;
60867;SDS011;46702;48.370;10.794;2023-02-15T07:05:55;10.05;;;6.15;;
60867;SDS011;46702;48.370;10.794;2023-02-15T07:08:22;1.38;;;1.38;;
60867;SDS011;46702;48.370;10.794;2023-02-15T07:10:48;15.43;;;7.90;;
60867;SDS011;46702;48.370;10.794;2023-02-15T07:13:15;10.27;;;6.45;;
60867;SDS011;46702;48.370;10.794;2023-02-15T07:15:41;10.60;;;7.18;;
60867;SDS011;46702;48.370;10.794;2023-02-15T07:18:07;8.90;;;5.57;;
60867;SDS011;46702;48.370;10.794;2023-02-15T07:20:34;6.18;;;4.40;;
60867;SDS011;46702;48.370;10.794;2023-02-15T07:23:00;17.05;;;8.23;;
60867;SDS011;46702;48.370;10.794;2023-02-15T07:25:27;11.27;;;7.07;;
60867;SDS011;46702;48.370;10.794;2023-02-15T07:27:56;13.77;;;6.85;;
60867;SDS011;46702;48.370;10.794;2023-02-15T07:30:23;10.65;;;7.20;;
60867;SDS011;46702;48.370;10.794;2023-02-15T07:32:48;9.77;;;6.68;;
60867;SDS011;46702;48.370;10.794;2023-02-15T07:35:33;9.55;;;5.85;;
60867;SDS011;46702;48.370;10.794;2023-02-15T07:37:59;7.10;;;5.75;;
60867;SDS011;46702;48.370;10.794;2023-02-15T07:40:25;11.35;;;7.30;;
60867;SDS011;46702;48.370;10.794;2023-02-15T07:42:51;11.35;;;6.63;;
60867;SDS011;46702;48.370;10.794;2023-02-15T07:45:19;12.18;;;7.50;;
60867;SDS011;46702;48.370;10.794;2023-02-15T07:47:47;9.75;;;7.25;;
60867;SDS011;46702;48.370;10.794;2023-02-15T07:50:13;9.43;;;6.63;;
60867;SDS011;46702;48.370;10.794;2023-02-15T07:52:38;13.80;;;7.32;;
60867;SDS011;46702;48.370;10.794;2023-02-15T07:55:04;10.60;;;6.82;;
60867;SDS011;46702;48.370;10.794;2023-02-15T07:57:30;10.70;;;6.55;;
60867;SDS011;46702;48.370;10.794;2023-02-15T07:59:56;4.78;;;4.38;;
60867;SDS011;46702;48.370;10.794;2023-02-15T08:02:21;12.30;;;7.57;;
60867;SDS011;46702;48.370;10.794;2023-02-15T08:04:47;6.03;;;5.18;;
60867;SDS011;46702;48.370;10.794;2023-02-15T08:07:14;7.60;;;5.88;;
60867;SDS011;46702;48.370;10.794;2023-02-15T08:09:40;12.40;;;7.10;;
60867;SDS011;46702;48.370;10.794;2023-02-15T08:12:05;11.48;;;6.60;;
60867;SDS011;46702;48.370;10.794;2023-02-15T08:14:31;10.20;;;6.60;;
60867;SDS011;46702;48.370;10.794;2023-02-15T08:16:58;10.82;;;7.25;;
60867;SDS011;46702;48.370;10.794;2023-02-15T08:19:31;9.95;;;6.07;;
60867;SDS011;46702;48.370;10.794;2023-02-15T08:22:15;5.03;;;3.55;;
60867;SDS011;46702;48.370;10.794;2023-02-15T08:24:41;1.40;;;1.30;;
60867;SDS011;46702;48.370;10.794;2023-02-15T08:27:07;9.00;;;6.90;;
60867;SDS011;46702;48.370;10.794;2023-02-15T08:29:35;8.80;;;6.32;;
60867;SDS011;46702;48.370;10.794;2023-02-15T08:32:04;13.43;;;5.25;;
60867;SDS011;46702;48.370;10.794;2023-02-15T08:34:32;7.82;;;6.13;;
60867;SDS011;46702;48.370;10.794;2023-02-15T08:36:59;11.73;;;7.65;;
60867;SDS011;46702;48.370;10.794;2023-02-15T08:39:25;2.25;;;2.08;;
60867;SDS011;46702;48.370;10.794;2023-02-15T08:41:51;7.95;;;4.95;;
60867;SDS011;46702;48.370;10.794;2023-02-15T08:44:17;2.80;;;2.60;;
60867;SDS011;46702;48.370;10.794;2023-02-15T08:46:44;2.90;;;2.67;;
60867;SDS011;46702;48.370;10.794;2023-02-15T08:49:12;4.80;;;3.03;;
60867;SDS011;46702;48.370;10.794;2023-02-15T08:51:40;7.38;;;3.85;;
60867;SDS011;46702;48.370;10.794;2023-02-15T08:54:07;13.00;;;8.10;;
60867;SDS011;46702;48.370;10.794;2023-02-15T08:56:35;9.57;;;5.15;;
60867;SDS011;46702;48.370;10.794;2023-02-15T08:59:03;5.07;;;3.70;;
60867;SDS011;46702;48.370;10.794;2023-02-15T09:01:30;2.75;;;2.53;;
60867;SDS011;46702;48.370;10.794;2023-02-15T09:04:01;11.77;;;7.13;;
60867;SDS011;46702;48.370;10.794;2023-02-15T09:06:29;9.30;;;6.72;;
60867;SDS011;46702;48.370;10.794;2023-02-15T09:08:55;2.08;;;1.98;;
60867;SDS011;46702;48.370;10.794;2023-02-15T09:11:22;13.52;;;7.30;;
60867;SDS011;46702;48.370;10.794;2023-02-15T09:13:51;8.52;;;4.95;;
60867;SDS011;46702;48.370;10.794;2023-02-15T09:16:21;11.90;;;7.80;;
60867;SDS011;46702;48.370;10.794;2023-02-15T09:18:48;4.70;;;3.75;;
60867;SDS011;46702;48.370;10.794;2023-02-15T09:21:18;9.82;;;6.78;;
60867;SDS011;46702;48.370;10.794;2023-02-15T09:23:47;10.27;;;6.95;;
60867;SDS011;46702;48.370;10.794;2023-02-15T09:26:15;10.63;;;6.45;;
60867;SDS011;46702;48.370;10.794;2023-02-15T09:28:42;12.50;;;7.45;;
60867;SDS011;46702;48.370;10.794;2023-02-15T09:31:10;6.97;;;5.03;;
60867;SDS011;46702;48.370;10.794;2023-02-15T09:33:40;13.50;;;8.32;;
60867;SDS011;46702;48.370;10.794;2023-02-15T09:36:13;12.02;;;7.05;;
60867;SDS011;46702;48.370;10.794;2023-02-15T09:38:47;10.25;;;6.20;;
60867;SDS011;46702;48.370;10.794;2023-02-15T09:41:24;5.88;;;4.32;;
60867;SDS011;46702;48.370;10.794;2023-02-15T09:55:10;9.73;;;7.35;;
60867;SDS011;46702;48.370;10.794;2023-02-15T10:09:17;4.55;;;3.65;;
60867;SDS011;46702;48.370;10.794;2023-02-15T10:12:20;11.63;;;7.97;;
60867;SDS011;46702;48.370;10.794;2023-02-15T10:20:12;12.70;;;8.23;;
60867;SDS011;46702;48.370;10.794;2023-02-15T10:28:39;10.57;;;7.45;;
60867;SDS011;46702;48.370;10.794;2023-02-15T10:31:55;9.32;;;6.18;;
60867;SDS011;46702;48.370;10.794;2023-02-15T10:34:17;10.60;;;6.65;;
60867;SDS011;46702;48.370;10.794;2023-02-15T10:37:13;11.02;;;8.00;;
60867;SDS011;46702;48.370;10.794;2023-02-15T10:43:10;13.68;;;9.50;;
60867;SDS011;46702;48.370;10.794;2023-02-15T10:51:30;16.05;;;8.98;;
60867;SDS011;46702;48.370;10.794;2023-02-15T10:56:53;16.10;;;11.38;;
60867;SDS011;46702;48.370;10.794;2023-02-15T11:06:14;17.30;;;9.40;;
60867;SDS011;46702;48.370;10.794;2023-02-15T11:08:45;22.95;;;12.25;;
60867;SDS011;46702;48.370;10.794;2023-02-15T11:11:15;19.95;;;10.82;;
60867;SDS011;46702;48.370;10.794;2023-02-15T11:13:56;18.63;;;10.93;;
60867;SDS011;46702;48.370;10.794;2023-02-15T11:16:40;16.58;;;10.20;;
60867;SDS011;46702;48.370;10.794;2023-02-15T11:19:11;18.45;;;10.65;;
60867;SDS011;46702;48.370;10.794;2023-02-15T11:22:02;20.92;;;11.93;;
60867;SDS011;46702;48.370;10.794;2023-02-15T11:24:30;19.77;;;12.27;;
60867;SDS011;46702;48.370;10.794;2023-02-15T11:27:00;18.83;;;11.65;;
60867;SDS011;46702;48.370;10.794;2023-02-15T11:29:47;16.90;;;10.00;;
60867;SDS011;46702;48.370;10.794;2023-02-15T11:34:52;18.13;;;9.48;;
60867;SDS011;46702;48.370;10.794;2023-02-15T11:37:24;19.17;;;12.05;;
60867;SDS011;46702;48.370;10.794;2023-02-15T11:39:59;15.90;;;9.60;;
60867;SDS011;46702;48.370;10.794;2023-02-15T11:42:28;15.95;;;9.65;;
60867;SDS011;46702;48.370;10.794;2023-02-15T11:47:55;20.02;;;10.68;;
60867;SDS011;46702;48.370;10.794;2023-02-15T11:50:25;19.73;;;11.20;;
60867;SDS011;46702;48.370;10.794;2023-02-15T11:52:56;21.52;;;10.70;;
60867;SDS011;46702;48.370;10.794;2023-02-15T11:55:43;19.23;;;9.73;;
60867;SDS011;46702;48.370;10.794;2023-02-15T12:00:46;19.17;;;12.05;;
60867;SDS011;46702;48.370;10.794;2023-02-15T12:05:54;19.80;;;10.95;;
60867;SDS011;46702;48.370;10.794;2023-02-15T12:08:26;19.13;;;11.02;;
60867;SDS011;46702;48.370;10.794;2023-02-15T12:11:22;17.33;;;10.80;;
60867;SDS011;46702;48.370;10.794;2023-02-15T12:16:31;19.52;;;10.82;;
60867;SDS011;46702;48.370;10.794;2023-02-15T12:19:29;21.73;;;10.98;;
60867;SDS011;46702;48.370;10.794;2023-02-15T12:22:03;20.30;;;12.25;;
60867;SDS011;46702;48.370;10.794;2023-02-15T12:24:32;18.90;;;12.03;;
60867;SDS011;46702;48.370;10.794;2023-02-15T12:29:47;19.58;;;11.60;;
60867;SDS011;46702;48.370;10.794;2023-02-15T12:32:46;18.20;;;10.55;;
60867;SDS011;46702;48.370;10.794;2023-02-15T12:35:20;18.20;;;10.88;;
60867;SDS011;46702;48.370;10.794;2023-02-15T12:37:54;20.35;;;11.43;;
60867;SDS011;46702;48.370;10.794;2023-02-15T12:40:23;17.33;;;11.18;;
60867;SDS011;46702;48.370;10.794;2023-02-15T12:42:52;18.10;;;10.70;;
60867;SDS011;46702;48.370;10.794;2023-02-15T12:48:13;20.08;;;11.57;;
60867;SDS011;46702;48.370;10.794;2023-02-15T12:50:49;17.80;;;11.27;;
60867;SDS011;46702;48.370;10.794;2023-02-15T12:55:55;19.77;;;11.38;;
60867;SDS011;46702;48.370;10.794;2023-02-15T12:58:24;17.73;;;10.55;;
60867;SDS011;46702;48.370;10.794;2023-02-15T13:01:12;17.60;;;10.80;;
60867;SDS011;46702;48.370;10.794;2023-02-15T13:03:50;19.92;;;10.82;;
60867;SDS011;46702;48.370;10.794;2023-02-15T13:06:32;20.63;;;10.90;;
60867;SDS011;46702;48.370;10.794;2023-02-15T13:09:11;18.70;;;10.55;;
60867;SDS011;46702;48.370;10.794;2023-02-15T13:11:41;18.45;;;10.68;;
60867;SDS011;46702;48.370;10.794;2023-02-15T13:14:16;16.17;;;10.02;;
60867;SDS011;46702;48.370;10.794;2023-02-15T13:16:51;16.40;;;11.00;;
60867;SDS011;46702;48.370;10.794;2023-02-15T13:22:06;18.85;;;10.23;;
60867;SDS011;46702;48.370;10.794;2023-02-15T13:24:38;14.48;;;9.75;;
60867;SDS011;46702;48.370;10.794;2023-02-15T13:27:10;19.27;;;11.55;;
60867;SDS011;46702;48.370;10.794;2023-02-15T13:29:41;17.77;;;10.95;;
60867;SDS011;46702;48.370;10.794;2023-02-15T13:32:20;20.80;;;11.05;;
60867;SDS011;46702;48.370;10.794;2023-02-15T13:34:54;18.80;;;11.10;;
60867;SDS011;46702;48.370;10.794;2023-02-15T13:39:55;20.48;;;11.15;;
60867;SDS011;46702;48.370;10.794;2023-02-15T13:42:31;17.63;;;11.25;;
60867;SDS011;46702;48.370;10.794;2023-02-15T14:06:43;17.05;;;11.10;;
60867;SDS011;46702;48.370;10.794;2023-02-15T14:10:00;20.17;;;11.07;;
60867;SDS011;46702;48.370;10.794;2023-02-15T14:23:36;24.65;;;11.93;;
60867;SDS011;46702;48.370;10.794;2023-02-15T14:31:39;29.08;;;13.55;;
60867;SDS011;46702;48.370;10.794;2023-02-15T14:35:12;22.98;;;13.82;;
60867;SDS011;46702;48.370;10.794;2023-02-15T14:37:16;20.00;;;13.13;;
60867;SDS011;46702;48.370;10.794;2023-02-15T14:43:21;23.45;;;14.60;;
60867;SDS011;46702;48.370;10.794;2023-02-15T14:45:58;20.92;;;13.45;;
60867;SDS011;46702;48.370;10.794;2023-02-15T14:48:45;24.13;;;14.27;;
60867;SDS011;46702;48.370;10.794;2023-02-15T14:56:42;24.02;;;14.05;;
60867;SDS011;46702;48.370;10.794;2023-02-15T14:59:13;22.73;;;13.93;;
60867;SDS011;46702;48.370;10.794;2023-02-15T15:04:41;24.00;;;13.98;;
60867;SDS011;46702;48.370;10.794;2023-02-15T15:07:20;23.25;;;14.05;;
60867;SDS011;46702;48.370;10.794;2023-02-15T15:10:03;26.77;;;14.93;;
60867;SDS011;46702;48.370;10.794;2023-02-15T15:14:57;19.90;;;12.93;;
60867;SDS011;46702;48.370;10.794;2023-02-15T15:20:02;25.00;;;15.00;;
60867;SDS011;46702;48.370;10.794;2023-02-15T15:22:32;31.90;;;17.55;;
60867;SDS011;46702;48.370;10.794;2023-02-15T15:25:00;28.42;;;17.25;;
60867;SDS011;46702;48.370;10.794;2023-02-15T15:33:09;33.20;;;18.20;;
60867;SDS011;46702;48.370;10.794;2023-02-15T15:49:45;36.38;;;18.10;;
60867;SDS011;46702;48.370;10.794;2023-02-15T15:52:13;31.52;;;17.35;;
60867;SDS011;46702;48.370;10.794;2023-02-15T15:54:40;31.45;;;17.65;;
60867;SDS011;46702;48.370;10.794;2023-02-15T16:00:04;30.13;;;15.88;;
60867;SDS011;46702;48.370;10.794;2023-02-15T16:03:02;27.80;;;16.85;;
60867;SDS011;46702;48.370;10.794;2023-02-15T16:05:34;30.50;;;15.88;;
60867;SDS011;46702;48.370;10.794;2023-02-15T16:08:01;30.40;;;16.23;;
60867;SDS011;46702;48.370;10.794;2023-02-15T16:10:27;29.58;;;15.95;;
60867;SDS011;46702;48.370;10.794;2023-02-15T16:12:54;35.13;;;16.80;;
60867;SDS011;46702;48.370;10.794;2023-02-15T16:15:22;30.02;;;15.43;;
60867;SDS011;46702;48.370;10.794;2023-02-15T16:17:54;30.77;;;17.70;;
60867;SDS011;46702;48.370;10.794;2023-02-15T16:20:26;32.30;;;16.48;;
60867;SDS011;46702;48.370;10.794;2023-02-15T16:22:57;33.08;;;16.73;;
60867;SDS011;46702;48.370;10.794;2023-02-15T16:28:35;29.73;;;16.52;;
60867;SDS011;46702;48.370;10.794;2023-02-15T16:31:05;32.25;;;16.23;;
60867;SDS011;46702;48.370;10.794;2023-02-15T16:33:36;32.67;;;17.10;;
60867;SDS011;46702;48.370;10.794;2023-02-15T16:36:03;31.88;;;16.95;;
60867;SDS011;46702;48.370;10.794;2023-02-15T16:41:07;44.85;;;19.83;;
60867;SDS011;46702;48.370;10.794;2023-02-15T16:43:35;31.55;;;16.63;;
60867;SDS011;46702;48.370;10.794;2023-02-15T16:46:04;29.13;;;15.95;;
60867;SDS011;46702;48.370;10.794;2023-02-15T16:48:32;33.70;;;18.45;;
60867;SDS011;46702;48.370;10.794;2023-02-15T16:51:00;33.38;;;18.50;;
60867;SDS011;46702;48.370;10.794;2023-02-15T16:53:27;38.47;;;18.45;;
60867;SDS011;46702;48.370;10.794;2023-02-15T16:55:54;35.10;;;18.73;;
60867;SDS011;46702;48.370;10.794;2023-02-15T17:01:06;36.08;;;17.92;;
60867;SDS011;46702;48.370;10.794;2023-02-15T17:03:34;31.60;;;18.30;;
60867;SDS011;46702;48.370;10.794;2023-02-15T17:06:01;37.70;;;18.70;;
60867;SDS011;46702;48.370;10.794;2023-02-15T17:08:32;35.63;;;18.17;;
60867;SDS011;46702;48.370;10.794;2023-02-15T17:13:25;35.03;;;17.67;;
60867;SDS011;46702;48.370;10.794;2023-02-15T17:18:30;33.47;;;16.65;;
60867;SDS011;46702;48.370;10.794;2023-02-15T17:20:59;30.27;;;18.23;;
60867;SDS011;46702;48.370;10.794;2023-02-15T17:23:34;33.22;;;15.30;;
60867;SDS011;46702;48.370;10.794;2023-02-15T17:26:11;29.30;;;16.52;;
60867;SDS011;46702;48.370;10.794;2023-02-15T17:28:49;31.52;;;17.30;;
60867;SDS011;46702;48.370;10.794;2023-02-15T17:31:17;32.42;;;17.95;;
60867;SDS011;46702;48.370;10.794;2023-02-15T17:33:44;37.42;;;18.48;;
60867;SDS011;46702;48.370;10.794;2023-02-15T17:36:14;31.90;;;16.42;;
60867;SDS011;46702;48.370;10.794;2023-02-15T17:41:21;26.90;;;15.52;;
60867;SDS011;46702;48.370;10.794;2023-02-15T17:43:55;27.20;;;14.95;;
60867;SDS011;46702;48.370;10.794;2023-02-15T17:46:21;31.80;;;15.98;;
60867;SDS011;46702;48.370;10.794;2023-02-15T17:48:48;28.13;;;15.13;;
60867;SDS011;46702;48.370;10.794;2023-02-15T17:51:15;26.30;;;15.73;;
60867;SDS011;46702;48.370;10.794;2023-02-15T17:53:42;28.10;;;13.45;;
60867;SDS011;46702;48.370;10.794;2023-02-15T17:56:34;25.40;;;13.80;;
60867;SDS011;46702;48.370;10.794;2023-02-15T17:59:00;29.77;;;14.50;;
60867;SDS011;46702;48.370;10.794;2023-02-15T18:01:26;25.63;;;14.80;;
60867;SDS011;46702;48.370;10.794;2023-02-15T18:04:14;24.17;;;14.43;;
60867;SDS011;46702;48.370;10.794;2023-02-15T18:06:58;23.52;;;14.48;;
60867;SDS011;46702;48.370;10.794;2023-02-15T18:09:43;23.40;;;13.73;;
60867;SDS011;46702;48.370;10.794;2023-02-15T18:12:31;23.05;;;14.60;;
60867;SDS011;46702;48.370;10.794;2023-02-15T18:15:00;32.88;;;16.25;;
60867;SDS011;46702;48.370;10.794;2023-02-15T18:19:54;35.35;;;18.25;;
60867;SDS011;46702;48.370;10.794;2023-02-15T18:22:20;32.58;;;16.80;;